Wetterdaten: Donnerstag, 10.05.2007
Datum Zeit Temp. A. Feuchte A. Luftdruck Regen Wind Richtung Richtung Sonnenschein UV Solar Windben
10.05.2007 00:00 11,9 C 85 % 1011,3 hPa 0,0 mm 0,0 km/h (0 Bft) SW 225 0 min 0 UV-I 0 W/m 1,6 km/h (1 Bft)
10.05.2007 00:10 11,8 C 86 % 1011,3 hPa 0,3 mm 0,0 km/h (0 Bft) SW 225 0 min 0 UV-I 0 W/m 3,2 km/h (1 Bft)
10.05.2007 00:20 11,8 C 86 % 1011,4 hPa 0,3 mm 1,6 km/h (1 Bft) SW 225 0 min 0 UV-I 0 W/m 4,8 km/h (1 Bft)
10.05.2007 00:30 11,7 C 87 % 1011,3 hPa 0,0 mm 1,6 km/h (1 Bft) W-SW 247 0 min 0 UV-I 0 W/m 6,4 km/h (2 Bft)
10.05.2007 00:40 11,6 C 89 % 1011,2 hPa 0,0 mm 1,6 km/h (1 Bft) SW 225 0 min 0 UV-I 0 W/m 6,4 km/h (2 Bft)
10.05.2007 00:50 11,4 C 90 % 1011,0 hPa 0,5 mm 0,0 km/h (0 Bft) W-SW 247 0 min 0 UV-I 0 W/m 4,8 km/h (1 Bft)
10.05.2007 01:00 11,3 C 91 % 1010,7 hPa 0,5 mm 1,6 km/h (1 Bft) O-SO 112 0 min 0 UV-I 0 W/m 3,2 km/h (1 Bft)
10.05.2007 01:10 11,4 C 91 % 1010,5 hPa 0,0 mm 3,2 km/h (1 Bft) SW 225 0 min 0 UV-I 0 W/m 11,3 km/h (2 Bft)
10.05.2007 01:20 11,6 C 91 % 1010,4 hPa 0,3 mm 4,8 km/h (1 Bft) W-SW 247 0 min 0 UV-I 0 W/m 19,3 km/h (3 Bft)
10.05.2007 01:30 11,8 C 91 % 1010,3 hPa 0,0 mm 6,4 km/h (2 Bft) W-SW 247 0 min 0 UV-I 0 W/m 19,3 km/h (3 Bft)
10.05.2007 01:40 12,1 C 91 % 1010,2 hPa 0,0 mm 3,2 km/h (1 Bft) W-SW 247 0 min 0 UV-I 0 W/m 9,7 km/h (2 Bft)
10.05.2007 01:50 12,1 C 90 % 1010,2 hPa 0,0 mm 4,8 km/h (1 Bft) W-SW 247 0 min 0 UV-I 0 W/m 11,3 km/h (2 Bft)
10.05.2007 02:00 12,2 C 90 % 1010,0 hPa 0,0 mm 4,8 km/h (1 Bft) W-SW 247 0 min 0 UV-I 0 W/m 16,1 km/h (3 Bft)
10.05.2007 02:10 12,3 C 89 % 1009,8 hPa 0,0 mm 4,8 km/h (1 Bft) W-SW 247 0 min 0 UV-I 0 W/m 14,5 km/h (3 Bft)
10.05.2007 02:20 12,4 C 88 % 1009,7 hPa 0,0 mm 4,8 km/h (1 Bft) W-SW 247 0 min 0 UV-I 0 W/m 16,1 km/h (3 Bft)
10.05.2007 02:30 12,5 C 88 % 1009,5 hPa 0,0 mm 4,8 km/h (1 Bft) W-SW 247 0 min 0 UV-I 0 W/m 14,5 km/h (3 Bft)
10.05.2007 02:40 12,6 C 87 % 1009,5 hPa 0,0 mm 4,8 km/h (1 Bft) SW 225 0 min 0 UV-I 0 W/m 14,5 km/h (3 Bft)
10.05.2007 02:50 12,7 C 87 % 1009,2 hPa 0,0 mm 4,8 km/h (1 Bft) W-SW 247 0 min 0 UV-I 0 W/m 14,5 km/h (3 Bft)
10.05.2007 03:00 12,7 C 87 % 1009,1 hPa 0,0 mm 3,2 km/h (1 Bft) SW 225 0 min 0 UV-I 0 W/m 11,3 km/h (2 Bft)
10.05.2007 03:10 12,7 C 87 % 1008,9 hPa 0,0 mm 3,2 km/h (1 Bft) SW 225 0 min 0 UV-I 0 W/m 8,0 km/h (2 Bft)
10.05.2007 03:20 12,7 C 87 % 1008,7 hPa 0,0 mm 4,8 km/h (1 Bft) SW 225 0 min 0 UV-I 0 W/m 11,3 km/h (2 Bft)
10.05.2007 03:30 12,7 C 87 % 1008,7 hPa 0,0 mm 3,2 km/h (1 Bft) W-SW 247 0 min 0 UV-I 0 W/m 14,5 km/h (3 Bft)
10.05.2007 03:40 12,7 C 87 % 1008,5 hPa 0,0 mm 1,6 km/h (1 Bft) W-SW 247 0 min 0 UV-I 0 W/m 8,0 km/h (2 Bft)
10.05.2007 03:50 12,7 C 87 % 1008,4 hPa 0,0 mm 1,6 km/h (1 Bft) W-SW 247 0 min 0 UV-I 0 W/m 4,8 km/h (1 Bft)
10.05.2007 04:00 12,7 C 88 % 1008,2 hPa 0,0 mm 0,0 km/h (0 Bft) W-SW 247 0 min 0 UV-I 0 W/m 4,8 km/h (1 Bft)
10.05.2007 04:10 12,7 C 87 % 1008,1 hPa 0,0 mm 1,6 km/h (1 Bft) W 270 0 min 0 UV-I 0 W/m 4,8 km/h (1 Bft)
10.05.2007 04:20 12,7 C 88 % 1008,0 hPa 0,3 mm 1,6 km/h (1 Bft) W 270 0 min 0 UV-I 0 W/m 11,3 km/h (2 Bft)
10.05.2007 04:30 12,7 C 88 % 1007,9 hPa 0,0 mm 1,6 km/h (1 Bft) W 270 0 min 0 UV-I 0 W/m 6,4 km/h (2 Bft)
10.05.2007 04:40 12,7 C 88 % 1007,7 hPa 0,0 mm 3,2 km/h (1 Bft) W-SW 247 0 min 0 UV-I 0 W/m 11,3 km/h (2 Bft)
10.05.2007 04:50 13,1 C 86 % 1007,5 hPa 0,0 mm 3,2 km/h (1 Bft) SW 225 0 min 0 UV-I 0 W/m 11,3 km/h (2 Bft)
10.05.2007 05:00 13,2 C 86 % 1007,3 hPa 0,0 mm 4,8 km/h (1 Bft) W-SW 247 0 min 0 UV-I 0 W/m 11,3 km/h (2 Bft)
10.05.2007 05:10 13,4 C 85 % 1007,2 hPa 0,0 mm 3,2 km/h (1 Bft) W-SW 247 0 min 0 UV-I 0 W/m 14,5 km/h (3 Bft)
10.05.2007 05:20 13,6 C 84 % 1007,3 hPa 0,0 mm 6,4 km/h (2 Bft) SW 225 0 min 0 UV-I 0 W/m 17,7 km/h (3 Bft)
10.05.2007 05:30 13,6 C 85 % 1007,2 hPa 0,0 mm 6,4 km/h (2 Bft) W-SW 247 0 min 0 UV-I 0 W/m 19,3 km/h (3 Bft)
10.05.2007 05:40 13,6 C 86 % 1007,2 hPa 0,0 mm 4,8 km/h (1 Bft) W-SW 247 0 min 0 UV-I 0 W/m 14,5 km/h (3 Bft)
10.05.2007 05:50 13,5 C 85 % 1007,3 hPa 0,0 mm 4,8 km/h (1 Bft) SW 225 0 min 0 UV-I 0 W/m 16,1 km/h (3 Bft)
10.05.2007 06:00 13,6 C 85 % 1007,3 hPa 0,0 mm 4,8 km/h (1 Bft) W-SW 247 0 min 0 UV-I 0 W/m 14,5 km/h (3 Bft)
10.05.2007 06:10 13,6 C 85 % 1007,3 hPa 0,0 mm 4,8 km/h (1 Bft) SW 225 0 min 0 UV-I 0 W/m 17,7 km/h (3 Bft)
10.05.2007 06:20 13,6 C 87 % 1007,2 hPa 0,3 mm 4,8 km/h (1 Bft) W-SW 247 0 min 0 UV-I 0 W/m 16,1 km/h (3 Bft)
10.05.2007 06:30 13,4 C 88 % 1007,3 hPa 0,5 mm 4,8 km/h (1 Bft) W-SW 247 0 min 0 UV-I 7 W/m 17,7 km/h (3 Bft)
10.05.2007 06:40 13,2 C 89 % 1007,5 hPa 0,3 mm 4,8 km/h (1 Bft) W-NW 292 0 min 0 UV-I 16 W/m 22,5 km/h (4 Bft)
10.05.2007 06:50 13,2 C 88 % 1007,5 hPa 0,5 mm 8,0 km/h (2 Bft) W-SW 247 0 min 0 UV-I 32 W/m 19,3 km/h (3 Bft)
10.05.2007 07:00 13,1 C 88 % 1007,7 hPa 0,0 mm 6,4 km/h (2 Bft) W-SW 247 0 min 0 UV-I 32 W/m 25,7 km/h (4 Bft)
10.05.2007 07:10 13,1 C 89 % 1007,7 hPa 0,0 mm 6,4 km/h (2 Bft) W-SW 247 0 min 0 UV-I 40 W/m 17,7 km/h (3 Bft)
10.05.2007 07:20 13,1 C 88 % 1007,8 hPa 0,0 mm 6,4 km/h (2 Bft) W-SW 247 0 min 0 UV-I 60 W/m 22,5 km/h (4 Bft)
10.05.2007 07:30 13,2 C 87 % 1007,8 hPa 0,0 mm 6,4 km/h (2 Bft) W-SW 247 0 min 0 UV-I 62 W/m 20,9 km/h (4 Bft)
10.05.2007 07:40 13,2 C 86 % 1007,8 hPa 0,0 mm 6,4 km/h (2 Bft) W-SW 247 0 min 0 UV-I 69 W/m 19,3 km/h (3 Bft)
10.05.2007 07:50 13,3 C 86 % 1007,8 hPa 0,0 mm 6,4 km/h (2 Bft) W-SW 247 0 min 0 UV-I 81 W/m 17,7 km/h (3 Bft)
10.05.2007 08:00 13,3 C 85 % 1007,9 hPa 0,0 mm 6,4 km/h (2 Bft) W-SW 247 0 min 0 UV-I 83 W/m 16,1 km/h (3 Bft)
10.05.2007 08:10 13,3 C 86 % 1007,9 hPa 0,0 mm 4,8 km/h (1 Bft) SW 225 0 min 0 UV-I 86 W/m 12,9 km/h (3 Bft)
10.05.2007 08:20 13,3 C 86 % 1007,9 hPa 0,3 mm 8,0 km/h (2 Bft) W-SW 247 0 min 0 UV-I 86 W/m 25,7 km/h (4 Bft)
10.05.2007 08:30 13,2 C 86 % 1007,9 hPa 0,0 mm 6,4 km/h (2 Bft) SW 225 0 min 0 UV-I 98 W/m 17,7 km/h (3 Bft)
10.05.2007 08:40 13,2 C 86 % 1007,8 hPa 0,0 mm 6,4 km/h (2 Bft) SW 225 0 min 0 UV-I 100 W/m 19,3 km/h (3 Bft)
10.05.2007 08:50 13,3 C 86 % 1007,9 hPa 0,0 mm 8,0 km/h (2 Bft) W-SW 247 0 min 1 UV-I 104 W/m 19,3 km/h (3 Bft)
10.05.2007 09:00 13,2 C 88 % 1008,0 hPa 0,0 mm 6,4 km/h (2 Bft) W-SW 247 0 min 0 UV-I 77 W/m 16,1 km/h (3 Bft)
10.05.2007 09:10 13,1 C 89 % 1007,9 hPa 0,0 mm 4,8 km/h (1 Bft) W-SW 247 0 min 1 UV-I 123 W/m 12,9 km/h (3 Bft)
10.05.2007 09:20 13,3 C 89 % 1007,9 hPa 0,0 mm 6,4 km/h (2 Bft) W-SW 247 0 min 1 UV-I 162 W/m 17,7 km/h (3 Bft)
10.05.2007 09:30 13,4 C 87 % 1007,9 hPa 0,0 mm 8,0 km/h (2 Bft) W-SW 247 0 min 0 UV-I 86 W/m 25,7 km/h (4 Bft)
10.05.2007 09:40 13,4 C 87 % 1007,9 hPa 0,0 mm 4,8 km/h (1 Bft) W-SW 247 0 min 1 UV-I 109 W/m 16,1 km/h (3 Bft)
10.05.2007 09:50 13,5 C 87 % 1008,0 hPa 0,0 mm 8,0 km/h (2 Bft) SW 225 0 min 1 UV-I 109 W/m 24,1 km/h (4 Bft)
10.05.2007 10:00 13,4 C 87 % 1008,0 hPa 0,0 mm 8,0 km/h (2 Bft) W-SW 247 0 min 0 UV-I 63 W/m 22,5 km/h (4 Bft)
10.05.2007 10:10 13,3 C 87 % 1008,0 hPa 0,0 mm 6,4 km/h (2 Bft) W-SW 247 0 min 1 UV-I 121 W/m 24,1 km/h (4 Bft)
10.05.2007 10:20 13,6 C 85 % 1007,9 hPa 0,0 mm 6,4 km/h (2 Bft) W-SW 247 0 min 1 UV-I 181 W/m 20,9 km/h (4 Bft)
10.05.2007 10:30 13,8 C 84 % 1007,7 hPa 0,0 mm 6,4 km/h (2 Bft) SW 225 0 min 1 UV-I 148 W/m 20,9 km/h (4 Bft)
10.05.2007 10:40 13,8 C 83 % 1007,8 hPa 0,0 mm 9,7 km/h (2 Bft) SW 225 0 min 1 UV-I 109 W/m 27,4 km/h (4 Bft)
10.05.2007 10:50 13,8 C 84 % 1008,0 hPa 0,0 mm 6,4 km/h (2 Bft) W-SW 247 0 min 1 UV-I 113 W/m 24,1 km/h (4 Bft)
10.05.2007 11:00 13,9 C 82 % 1008,0 hPa 0,0 mm 8,0 km/h (2 Bft) W-SW 247 0 min 1 UV-I 81 W/m 30,6 km/h (5 Bft)
10.05.2007 11:10 13,9 C 82 % 1008,1 hPa 0,0 mm 6,4 km/h (2 Bft) W-SW 247 0 min 1 UV-I 63 W/m 25,7 km/h (4 Bft)
10.05.2007 11:20 14,0 C 81 % 1008,1 hPa 0,0 mm 9,7 km/h (2 Bft) W-SW 247 0 min 1 UV-I 67 W/m 24,1 km/h (4 Bft)
10.05.2007 11:30 14,0 C 81 % 1008,2 hPa 0,0 mm 9,7 km/h (2 Bft) W-SW 247 0 min 1 UV-I 58 W/m 27,4 km/h (4 Bft)
10.05.2007 11:40 14,0 C 80 % 1008,2 hPa 0,0 mm 8,0 km/h (2 Bft) W-SW 247 0 min 1 UV-I 100 W/m 24,1 km/h (4 Bft)
10.05.2007 11:50 14,0 C 81 % 1008,2 hPa 0,0 mm 8,0 km/h (2 Bft) SW 225 0 min 1 UV-I 67 W/m 24,1 km/h (4 Bft)
10.05.2007 12:00 13,9 C 82 % 1008,2 hPa 0,0 mm 6,4 km/h (2 Bft) W-SW 247 0 min 1 UV-I 98 W/m 20,9 km/h (4 Bft)
10.05.2007 12:10 14,1 C 80 % 1008,1 hPa 0,0 mm 9,7 km/h (2 Bft) SW 225 0 min 3 UV-I 346 W/m 22,5 km/h (4 Bft)
10.05.2007 12:20 14,4 C 79 % 1008,2 hPa 0,0 mm 8,0 km/h (2 Bft) W-SW 247 0 min 3 UV-I 297 W/m 20,9 km/h (4 Bft)
10.05.2007 12:30 14,7 C 79 % 1008,2 hPa 0,0 mm 6,4 km/h (2 Bft) SW 225 0 min 2 UV-I 267 W/m 19,3 km/h (3 Bft)
10.05.2007 12:40 14,6 C 78 % 1008,2 hPa 0,0 mm 8,0 km/h (2 Bft) W-SW 247 0 min 2 UV-I 237 W/m 25,7 km/h (4 Bft)
10.05.2007 12:50 14,6 C 79 % 1008,3 hPa 0,0 mm 8,0 km/h (2 Bft) SW 225 0 min 2 UV-I 190 W/m 20,9 km/h (4 Bft)
10.05.2007 13:00 14,7 C 79 % 1008,2 hPa 0,0 mm 6,4 km/h (2 Bft) W-SW 247 0 min 3 UV-I 315 W/m 16,1 km/h (3 Bft)
10.05.2007 13:10 14,9 C 79 % 1008,1 hPa 0,0 mm 8,0 km/h (2 Bft) SW 225 0 min 3 UV-I 369 W/m 24,1 km/h (4 Bft)
10.05.2007 13:20 15,0 C 78 % 1008,1 hPa 0,0 mm 8,0 km/h (2 Bft) W-SW 247 0 min 3 UV-I 325 W/m 27,4 km/h (4 Bft)
10.05.2007 13:30 15,0 C 78 % 1008,1 hPa 0,0 mm 8,0 km/h (2 Bft) W-SW 247 10 min 4 UV-I 454 W/m 29,0 km/h (5 Bft)
10.05.2007 13:40 15,0 C 81 % 1008,1 hPa 0,3 mm 6,4 km/h (2 Bft) SW 225 0 min 2 UV-I 214 W/m 17,7 km/h (3 Bft)
10.05.2007 13:50 14,5 C 82 % 1008,1 hPa 0,0 mm 6,4 km/h (2 Bft) SW 225 0 min 3 UV-I 330 W/m 16,1 km/h (3 Bft)
10.05.2007 14:00 14,9 C 79 % 1008,0 hPa 0,0 mm 8,0 km/h (2 Bft) W-SW 247 0 min 3 UV-I 362 W/m 22,5 km/h (4 Bft)
10.05.2007 14:10 15,2 C 77 % 1008,0 hPa 0,0 mm 9,7 km/h (2 Bft) W-SW 247 0 min 4 UV-I 371 W/m 24,1 km/h (4 Bft)
10.05.2007 14:20 15,5 C 76 % 1007,9 hPa 0,0 mm 9,7 km/h (2 Bft) SW 225 0 min 3 UV-I 399 W/m 24,1 km/h (4 Bft)
10.05.2007 14:30 15,9 C 72 % 1007,9 hPa 0,0 mm 6,4 km/h (2 Bft) W-SW 247 10 min 4 UV-I 536 W/m 24,1 km/h (4 Bft)
10.05.2007 14:40 16,1 C 72 % 1007,8 hPa 0,0 mm 8,0 km/h (2 Bft) W-SW 247 0 min 3 UV-I 374 W/m 19,3 km/h (3 Bft)
10.05.2007 14:50 15,8 C 72 % 1007,6 hPa 0,0 mm 8,0 km/h (2 Bft) W-SW 247 10 min 3 UV-I 429 W/m 29,0 km/h (5 Bft)
10.05.2007 15:00 16,1 C 73 % 1007,5 hPa 0,0 mm 8,0 km/h (2 Bft) SW 225 0 min 4 UV-I 357 W/m 19,3 km/h (3 Bft)
10.05.2007 15:10 16,7 C 68 % 1007,5 hPa 0,0 mm 9,7 km/h (2 Bft) W-SW 247 10 min 4 UV-I 489 W/m 30,6 km/h (5 Bft)
10.05.2007 15:20 17,0 C 69 % 1007,3 hPa 0,0 mm 9,7 km/h (2 Bft) W-SW 247 10 min 4 UV-I 504 W/m 24,1 km/h (4 Bft)
10.05.2007 15:30 17,3 C 68 % 1007,3 hPa 0,0 mm 9,7 km/h (2 Bft) SW 225 10 min 5 UV-I 840 W/m 24,1 km/h (4 Bft)
10.05.2007 15:40 17,2 C 68 % 1007,1 hPa 0,0 mm 8,0 km/h (2 Bft) SW 225 0 min 3 UV-I 392 W/m 27,4 km/h (4 Bft)
10.05.2007 15:50 17,0 C 68 % 1007,1 hPa 0,0 mm 6,4 km/h (2 Bft) SW 225 0 min 2 UV-I 283 W/m 22,5 km/h (4 Bft)
10.05.2007 16:00 17,0 C 67 % 1007,1 hPa 0,0 mm 8,0 km/h (2 Bft) W-SW 247 10 min 2 UV-I 403 W/m 27,4 km/h (4 Bft)
10.05.2007 16:10 17,1 C 67 % 1007,1 hPa 0,0 mm 8,0 km/h (2 Bft) SW 225 10 min 2 UV-I 371 W/m 25,7 km/h (4 Bft)
10.05.2007 16:20 17,1 C 66 % 1006,9 hPa 0,0 mm 8,0 km/h (2 Bft) W-SW 247 0 min 2 UV-I 339 W/m 22,5 km/h (4 Bft)
10.05.2007 16:30 16,9 C 68 % 1006,8 hPa 0,0 mm 6,4 km/h (2 Bft) W-SW 247 0 min 2 UV-I 241 W/m 19,3 km/h (3 Bft)
10.05.2007 16:40 16,7 C 71 % 1006,7 hPa 0,0 mm 4,8 km/h (1 Bft) SW 225 0 min 0 UV-I 74 W/m 16,1 km/h (3 Bft)
10.05.2007 16:50 16,2 C 75 % 1006,9 hPa 0,0 mm 6,4 km/h (2 Bft) SW 225 0 min 2 UV-I 281 W/m 20,9 km/h (4 Bft)
10.05.2007 17:00 16,2 C 72 % 1006,8 hPa 0,0 mm 8,0 km/h (2 Bft) W-SW 247 10 min 2 UV-I 401 W/m 22,5 km/h (4 Bft)
10.05.2007 17:10 16,7 C 70 % 1006,8 hPa 0,0 mm 8,0 km/h (2 Bft) SW 225 10 min 2 UV-I 457 W/m 25,7 km/h (4 Bft)
10.05.2007 17:20 16,8 C 69 % 1006,6 hPa 0,0 mm 8,0 km/h (2 Bft) W-SW 247 0 min 1 UV-I 278 W/m 22,5 km/h (4 Bft)
10.05.2007 17:30 16,8 C 70 % 1006,5 hPa 0,0 mm 4,8 km/h (1 Bft) W-SW 247 0 min 1 UV-I 199 W/m 14,5 km/h (3 Bft)
10.05.2007 17:40 16,6 C 76 % 1006,4 hPa 0,5 mm 4,8 km/h (1 Bft) W-SW 247 0 min 1 UV-I 113 W/m 16,1 km/h (3 Bft)
10.05.2007 17:50 15,7 C 78 % 1006,3 hPa 0,0 mm 4,8 km/h (1 Bft) W-SW 247 0 min 1 UV-I 179 W/m 14,5 km/h (3 Bft)
10.05.2007 18:00 15,7 C 77 % 1006,2 hPa 0,0 mm 4,8 km/h (1 Bft) SW 225 0 min 1 UV-I 178 W/m 16,1 km/h (3 Bft)
10.05.2007 18:10 15,9 C 79 % 1006,0 hPa 0,3 mm 3,2 km/h (1 Bft) SW 225 0 min 0 UV-I 97 W/m 9,7 km/h (2 Bft)
10.05.2007 18:20 15,6 C 82 % 1006,0 hPa 0,5 mm 1,6 km/h (1 Bft) SW 225 0 min 0 UV-I 46 W/m 6,4 km/h (2 Bft)
10.05.2007 18:30 15,1 C 84 % 1006,0 hPa 0,0 mm 1,6 km/h (1 Bft) SW 225 0 min 0 UV-I 102 W/m 4,8 km/h (1 Bft)
10.05.2007 18:40 15,0 C 82 % 1005,9 hPa 0,0 mm 1,6 km/h (1 Bft) SW 225 0 min 0 UV-I 97 W/m 6,4 km/h (2 Bft)
10.05.2007 18:50 15,2 C 82 % 1005,7 hPa 0,0 mm 1,6 km/h (1 Bft) SW 225 0 min 0 UV-I 102 W/m 9,7 km/h (2 Bft)
10.05.2007 19:00 15,4 C 79 % 1005,6 hPa 0,0 mm 3,2 km/h (1 Bft) W-SW 247 0 min 0 UV-I 125 W/m 8,0 km/h (2 Bft)
10.05.2007 19:10 15,6 C 79 % 1005,5 hPa 0,0 mm 1,6 km/h (1 Bft) W-SW 247 0 min 0 UV-I 123 W/m 8,0 km/h (2 Bft)
10.05.2007 19:20 15,7 C 79 % 1005,2 hPa 0,0 mm 1,6 km/h (1 Bft) W-SW 247 0 min 0 UV-I 77 W/m 6,4 km/h (2 Bft)
10.05.2007 19:30 15,7 C 80 % 1005,2 hPa 0,0 mm 0,0 km/h (0 Bft) SW 225 0 min 0 UV-I 56 W/m 3,2 km/h (1 Bft)
10.05.2007 19:40 15,6 C 80 % 1005,1 hPa 0,0 mm 0,0 km/h (0 Bft) SW 225 0 min 0 UV-I 62 W/m 1,6 km/h (1 Bft)
10.05.2007 19:50 15,6 C 81 % 1005,1 hPa 0,0 mm 0,0 km/h (0 Bft) SW 225 0 min 0 UV-I 37 W/m 3,2 km/h (1 Bft)
10.05.2007 20:00 15,4 C 82 % 1005,2 hPa 0,5 mm 0,0 km/h (0 Bft) SW 225 0 min 0 UV-I 28 W/m 3,2 km/h (1 Bft)
10.05.2007 20:10 15,2 C 82 % 1005,1 hPa 0,0 mm 1,6 km/h (1 Bft) W-SW 247 0 min 0 UV-I 33 W/m 6,4 km/h (2 Bft)
10.05.2007 20:20 15,0 C 82 % 1005,1 hPa 0,0 mm 1,6 km/h (1 Bft) S-SW 202 0 min 0 UV-I 47 W/m 8,0 km/h (2 Bft)
10.05.2007 20:30 15,0 C 83 % 1005,1 hPa 0,0 mm 1,6 km/h (1 Bft) W-SW 247 10 min 0 UV-I 54 W/m 4,8 km/h (1 Bft)
10.05.2007 20:40 15,0 C 85 % 1004,8 hPa 0,0 mm 0,0 km/h (0 Bft) W-SW 247 10 min 0 UV-I 44 W/m 3,2 km/h (1 Bft)
10.05.2007 20:50 14,7 C 86 % 1004,8 hPa 0,0 mm 0,0 km/h (0 Bft) W-SW 247 10 min 0 UV-I 19 W/m 3,2 km/h (1 Bft)
10.05.2007 21:00 14,4 C 87 % 1004,9 hPa 0,0 mm 0,0 km/h (0 Bft) W-SW 247 0 min 0 UV-I 0 W/m 3,2 km/h (1 Bft)
10.05.2007 21:10 14,2 C 88 % 1004,9 hPa 0,0 mm 0,0 km/h (0 Bft) W-SW 247 0 min 0 UV-I 0 W/m 1,6 km/h (1 Bft)
10.05.2007 21:20 14,1 C 89 % 1004,8 hPa 0,0 mm 0,0 km/h (0 Bft) W-SW 247 0 min 0 UV-I 0 W/m 1,6 km/h (1 Bft)
10.05.2007 21:30 13,9 C 89 % 1004,8 hPa 0,0 mm 0,0 km/h (0 Bft) W-SW 247 0 min 0 UV-I 0 W/m 1,6 km/h (1 Bft)
10.05.2007 21:40 13,8 C 90 % 1004,9 hPa 0,0 mm 0,0 km/h (0 Bft) N 0 0 min 0 UV-I 0 W/m 0,0 km/h (0 Bft)
10.05.2007 21:50 13,7 C 90 % 1005,0 hPa 0,0 mm 0,0 km/h (0 Bft) N 0 0 min 0 UV-I 0 W/m 0,0 km/h (0 Bft)
10.05.2007 22:00 13,7 C 91 % 1004,9 hPa 0,0 mm 0,0 km/h (0 Bft) N 0 0 min 0 UV-I 0 W/m 0,0 km/h (0 Bft)
10.05.2007 22:10 13,7 C 90 % 1005,1 hPa 0,0 mm 0,0 km/h (0 Bft) W-SW 247 0 min 0 UV-I 0 W/m 3,2 km/h (1 Bft)
10.05.2007 22:20 13,6 C 90 % 1004,8 hPa 0,0 mm 0,0 km/h (0 Bft) W-SW 247 0 min 0 UV-I 0 W/m 3,2 km/h (1 Bft)
10.05.2007 22:30 13,4 C 90 % 1004,8 hPa 0,0 mm 0,0 km/h (0 Bft) W-SW 247 0 min 0 UV-I 0 W/m 3,2 km/h (1 Bft)
10.05.2007 22:40 13,2 C 91 % 1004,3 hPa 0,0 mm 0,0 km/h (0 Bft) W-SW 247 0 min 0 UV-I 0 W/m 3,2 km/h (1 Bft)
10.05.2007 22:50 12,9 C 91 % 1004,3 hPa 0,0 mm 0,0 km/h (0 Bft) SW 225 0 min 0 UV-I 0 W/m 1,6 km/h (1 Bft)
10.05.2007 23:00 12,7 C 92 % 1004,2 hPa 0,0 mm 0,0 km/h (0 Bft) SW 225 0 min 0 UV-I 0 W/m 1,6 km/h (1 Bft)
10.05.2007 23:10 12,6 C 92 % 1003,9 hPa 0,0 mm 0,0 km/h (0 Bft) N 0 0 min 0 UV-I 0 W/m 0,0 km/h (0 Bft)
10.05.2007 23:20 12,4 C 92 % 1003,6 hPa 0,0 mm 0,0 km/h (0 Bft) S-SW 202 0 min 0 UV-I 0 W/m 3,2 km/h (1 Bft)
10.05.2007 23:30 12,3 C 92 % 1003,2 hPa 0,0 mm 0,0 km/h (0 Bft) N 0 0 min 0 UV-I 0 W/m 0,0 km/h (0 Bft)
10.05.2007 23:40 12,3 C 92 % 1003,0 hPa 0,0 mm 0,0 km/h (0 Bft) N 0 0 min 0 UV-I 0 W/m 0,0 km/h (0 Bft)
10.05.2007 23:50 12,3 C 93 % 1002,9 hPa 0,0 mm 0,0 km/h (0 Bft) N 0 0 min 0 UV-I 0 W/m 0,0 km/h (0 Bft)
_ Min-Zeit 01:00 16:20 23:50 - 00:00 - - - - - 21:40
Minimum _ 11,3 C 66 % 1002,9 hPa - 0,0 km/h (0 Bft) - - - - - 0,0 km/h (0 Bft)
_ Max-Zeit 15:30 23:50 00:20 00:50 10:40 - - 13:30 15:30 15:30 11:00
Maximum _ 17,4 C 93 % 1011,4 hPa 0,5 mm 9,7 km/h
SW (2 Bft)
- - 10 min 5 UV-I 840 W/m 30,6 km/h
N (5 Bft)
Durchschnitt _ 14,0 C 83 % 1007,3 hPa #5,8 mm 4,6 km/h (1 Bft) W-SW - #2:10 h 2 UV-I 187 W/m 14,5 km/h (3 Bft)